Terminal Aerodrome Forecast
Issued by NWS

Home | Current Version | Previous Version | Graphics & Text | Print | Product List | Glossary On
Versions: 1 2 3 4 5 6 7 8 9 10 11 12
000
FTUS43 KGRB 230500
TAFCWA
TAF
KCWA 230520Z 2306/2406 32008KT P6SM BKN060
     FM230900 30006KT P6SM SCT060
     FM231500 30011KT P6SM SCT060
     FM240100 VRB03KT P6SM SKC
      AMD LTD TO CLD VIS AND WIND TIL 231200=

USA.gov is the U.S. government's official web portal to all federal, state and local government web resources and services.